createdAt,value
2018-07-03T00:00:55.118Z,18.00
2018-07-03T00:03:23.808Z,17.90
2018-07-03T00:05:51.399Z,17.90
2018-07-03T00:08:18.950Z,17.90
2018-07-03T00:10:46.548Z,17.80
2018-07-03T00:13:14.287Z,17.80
2018-07-03T00:15:42.597Z,17.70
2018-07-03T00:18:10.359Z,17.70
2018-07-03T00:20:37.838Z,17.70
2018-07-03T00:23:07.906Z,17.70
2018-07-03T00:25:35.493Z,17.60
2018-07-03T00:28:03.121Z,17.50
2018-07-03T00:30:31.980Z,17.40
2018-07-03T00:32:59.756Z,17.30
2018-07-03T00:35:29.565Z,17.30
2018-07-03T00:37:57.243Z,17.30
2018-07-03T00:40:25.851Z,17.10
2018-07-03T00:42:56.131Z,17.00
2018-07-03T00:45:23.803Z,17.00
2018-07-03T00:47:51.471Z,16.80
2018-07-03T00:50:19.086Z,16.80
2018-07-03T00:52:46.726Z,16.80
2018-07-03T00:55:14.317Z,16.70
2018-07-03T00:57:42.033Z,16.70
2018-07-03T01:00:21.086Z,16.60
2018-07-03T01:02:48.673Z,16.60
2018-07-03T01:05:16.245Z,16.40
2018-07-03T01:07:44.036Z,16.30
2018-07-03T01:10:11.843Z,16.30
2018-07-03T01:12:39.617Z,16.30
2018-07-03T01:15:07.250Z,16.00
2018-07-03T01:17:35.010Z,15.90
2018-07-03T01:20:03.982Z,16.00
2018-07-03T01:22:31.577Z,15.90
2018-07-03T01:24:59.338Z,16.00
2018-07-03T01:27:27.954Z,15.90
2018-07-03T01:29:56.556Z,15.80
2018-07-03T01:32:24.107Z,15.90
2018-07-03T01:34:51.793Z,15.90
2018-07-03T01:37:19.520Z,15.80
2018-07-03T01:39:47.326Z,15.80
2018-07-03T01:42:15.098Z,15.80
2018-07-03T01:44:42.905Z,15.80
2018-07-03T01:47:10.675Z,15.80
2018-07-03T01:49:38.286Z,15.80
2018-07-03T01:52:06.099Z,15.70
2018-07-03T01:54:33.834Z,15.70
2018-07-03T01:57:01.593Z,15.70
2018-07-03T01:59:29.252Z,15.60
2018-07-03T02:01:57.014Z,15.70
2018-07-03T02:04:24.543Z,15.70
2018-07-03T02:06:52.237Z,15.70
2018-07-03T02:09:39.603Z,15.50
2018-07-03T02:12:09.738Z,15.50
2018-07-03T02:14:37.827Z,15.50
2018-07-03T02:17:05.821Z,15.60
2018-07-03T02:19:34.071Z,15.60
2018-07-03T02:22:01.661Z,15.40
2018-07-03T02:24:29.226Z,15.40
2018-07-03T02:26:56.826Z,15.30
2018-07-03T02:29:25.606Z,15.10
2018-07-03T02:31:53.272Z,15.10
2018-07-03T02:34:22.884Z,15.10
2018-07-03T02:36:50.435Z,15.10
2018-07-03T02:39:18.410Z,15.10
2018-07-03T02:41:46.129Z,15.00
2018-07-03T02:44:14.056Z,15.00
2018-07-03T02:46:43.839Z,15.00
2018-07-03T02:49:11.501Z,14.90
2018-07-03T02:51:40.643Z,14.90
2018-07-03T02:54:08.359Z,14.90
2018-07-03T02:56:36.390Z,14.80
2018-07-03T02:59:06.054Z,14.90
2018-07-03T03:01:33.606Z,14.90
2018-07-03T03:04:01.303Z,14.90
2018-07-03T03:06:28.939Z,14.90
2018-07-03T03:08:56.521Z,15.00
2018-07-03T03:11:25.132Z,15.00
2018-07-03T03:13:54.538Z,15.00
2018-07-03T03:16:22.139Z,15.00
2018-07-03T03:18:51.899Z,15.00
2018-07-03T03:21:19.833Z,15.10
2018-07-03T03:23:49.466Z,15.10
2018-07-03T03:26:17.359Z,15.00
2018-07-03T03:28:45.200Z,15.00
2018-07-03T03:31:12.902Z,15.00
2018-07-03T03:33:40.545Z,14.90
2018-07-03T03:36:08.126Z,14.90
2018-07-03T03:38:35.745Z,14.80
2018-07-03T03:41:04.326Z,14.80
2018-07-03T03:43:31.923Z,14.70
2018-07-03T03:46:03.557Z,14.80
2018-07-03T03:48:32.202Z,14.70
2018-07-03T03:51:04.822Z,14.70
2018-07-03T03:53:33.548Z,14.80
2018-07-03T03:56:02.150Z,14.80
2018-07-03T03:58:35.508Z,14.80
2018-07-03T04:01:04.083Z,14.70
2018-07-03T04:03:32.734Z,14.60
2018-07-03T04:06:00.358Z,14.60
2018-07-03T04:08:28.017Z,14.70
2018-07-03T04:10:56.780Z,14.70
2018-07-03T04:13:24.509Z,14.90
2018-07-03T04:15:52.357Z,14.90
2018-07-03T04:18:31.597Z,14.90
2018-07-03T04:21:01.285Z,14.90
2018-07-03T04:23:29.020Z,14.90
2018-07-03T04:25:57.878Z,15.00
2018-07-03T04:28:25.585Z,15.10
2018-07-03T04:30:53.190Z,15.10
2018-07-03T04:33:21.050Z,15.20
2018-07-03T04:35:48.982Z,15.20
2018-07-03T04:38:16.736Z,15.30
2018-07-03T04:40:45.387Z,15.40
2018-07-03T04:43:13.081Z,15.50
2018-07-03T04:45:40.730Z,15.50
2018-07-03T04:48:08.355Z,15.70
2018-07-03T04:50:36.934Z,15.70
2018-07-03T04:53:04.670Z,15.80
2018-07-03T04:55:33.316Z,15.90
2018-07-03T04:58:00.974Z,15.90
2018-07-03T05:00:30.019Z,16.00
2018-07-03T05:02:57.867Z,16.10
2018-07-03T05:05:25.667Z,16.20
2018-07-03T05:07:53.271Z,16.30
2018-07-03T05:10:21.125Z,16.40
2018-07-03T05:12:49.705Z,16.50
2018-07-03T05:15:17.436Z,16.60
2018-07-03T05:17:45.179Z,16.70
2018-07-03T05:20:13.118Z,16.80
2018-07-03T05:22:41.188Z,16.90
2018-07-03T05:25:08.911Z,17.10
2018-07-03T05:27:38.525Z,17.20
2018-07-03T05:30:06.617Z,17.30
2018-07-03T05:32:34.476Z,17.40
2018-07-03T05:35:02.148Z,17.50
2018-07-03T05:37:30.910Z,17.60
2018-07-03T05:39:58.790Z,17.70
2018-07-03T05:42:27.470Z,17.80
2018-07-03T05:44:56.144Z,17.90
2018-07-03T05:47:23.779Z,18.00
2018-07-03T05:49:53.590Z,18.00
2018-07-03T05:52:24.900Z,18.10
2018-07-03T05:54:52.512Z,18.10
2018-07-03T05:57:21.137Z,18.20
2018-07-03T05:59:48.761Z,18.40
2018-07-03T06:02:16.621Z,18.50
2018-07-03T06:04:44.347Z,18.50
2018-07-03T06:07:13.448Z,18.60
2018-07-03T06:09:42.216Z,18.60
2018-07-03T06:12:09.916Z,18.60
2018-07-03T06:14:38.651Z,18.70
2018-07-03T06:17:07.369Z,18.90
2018-07-03T06:19:41.213Z,18.80
2018-07-03T06:22:08.939Z,19.00
2018-07-03T06:24:36.800Z,19.10
2018-07-03T06:27:04.667Z,19.20
2018-07-03T06:29:41.364Z,19.30
2018-07-03T06:32:10.127Z,19.40
2018-07-03T06:34:40.803Z,19.40
2018-07-03T06:37:09.526Z,19.50
2018-07-03T06:39:38.226Z,19.60
2018-07-03T06:42:06.973Z,19.70
2018-07-03T06:44:34.779Z,19.70
2018-07-03T06:47:02.808Z,19.80
2018-07-03T06:49:31.637Z,19.90
2018-07-03T06:52:01.871Z,19.90
2018-07-03T06:54:35.249Z,20.00
2018-07-03T06:57:05.096Z,20.10
2018-07-03T06:59:34.960Z,20.20
2018-07-03T07:02:02.642Z,20.30
2018-07-03T07:04:37.433Z,20.40
2018-07-03T07:07:05.463Z,20.30
2018-07-03T07:09:33.111Z,20.30
2018-07-03T07:12:00.804Z,20.60
2018-07-03T07:14:30.391Z,20.70
2018-07-03T07:16:58.024Z,20.70
2018-07-03T07:19:26.745Z,20.80
2018-07-03T07:21:54.454Z,20.70
2018-07-03T07:24:22.170Z,20.90
2018-07-03T07:26:49.868Z,21.00
2018-07-03T07:29:18.529Z,21.20
2018-07-03T07:31:49.135Z,21.30
2018-07-03T07:34:17.614Z,21.30
2018-07-03T07:36:46.341Z,21.40
2018-07-03T07:39:14.137Z,21.40
2018-07-03T07:41:42.345Z,21.50
2018-07-03T07:44:11.240Z,21.50
2018-07-03T07:46:38.920Z,21.70
2018-07-03T07:49:06.862Z,21.80
2018-07-03T07:51:34.838Z,21.90
2018-07-03T07:54:03.733Z,21.80
2018-07-03T07:56:31.360Z,21.90
2018-07-03T07:58:59.216Z,21.90
2018-07-03T08:01:27.233Z,22.00
2018-07-03T08:03:56.860Z,22.00
2018-07-03T08:06:25.748Z,22.20
2018-07-03T08:08:54.640Z,22.20
2018-07-03T08:11:23.856Z,22.30
2018-07-03T08:13:51.686Z,22.40
2018-07-03T08:16:20.336Z,22.50
2018-07-03T08:18:48.059Z,22.60
2018-07-03T08:21:25.693Z,22.70
2018-07-03T08:23:58.449Z,22.70
2018-07-03T08:26:26.233Z,22.60
2018-07-03T08:28:53.919Z,22.70
2018-07-03T08:31:22.747Z,22.80
2018-07-03T08:33:50.454Z,22.90
2018-07-03T08:36:18.127Z,23.00
2018-07-03T08:38:45.855Z,23.10
2018-07-03T08:41:13.512Z,23.10
2018-07-03T08:43:42.446Z,23.30
2018-07-03T08:46:10.624Z,23.40
2018-07-03T08:48:38.250Z,23.40
2018-07-03T08:51:05.880Z,23.40
2018-07-03T08:53:33.622Z,23.40
2018-07-03T08:56:03.562Z,23.50
2018-07-03T08:58:33.823Z,23.60
2018-07-03T09:01:05.406Z,23.70
2018-07-03T09:03:33.040Z,23.70
2018-07-03T09:06:01.856Z,23.80
2018-07-03T09:08:29.490Z,23.90
2018-07-03T09:10:58.662Z,23.80
2018-07-03T09:13:26.350Z,24.00
2018-07-03T09:15:53.998Z,24.00
2018-07-03T09:18:22.766Z,24.00
2018-07-03T09:20:51.387Z,24.10
2018-07-03T09:23:18.945Z,24.20
2018-07-03T09:25:47.154Z,24.40
2018-07-03T09:28:15.223Z,24.40
2018-07-03T09:30:42.916Z,24.40
2018-07-03T09:33:11.677Z,24.50
2018-07-03T09:35:39.242Z,24.40
2018-07-03T09:38:06.829Z,24.60
2018-07-03T09:40:35.654Z,24.50
2018-07-03T09:43:04.768Z,24.40
2018-07-03T09:45:33.365Z,24.70
2018-07-03T09:48:01.002Z,24.70
2018-07-03T09:50:30.112Z,24.80
2018-07-03T09:52:58.199Z,25.00
2018-07-03T09:55:25.754Z,25.00
2018-07-03T09:57:54.987Z,25.00
2018-07-03T10:00:30.187Z,25.10
2018-07-03T10:02:58.234Z,25.30
2018-07-03T10:05:25.881Z,25.40
2018-07-03T10:07:53.526Z,25.50
2018-07-03T10:10:21.165Z,25.70
2018-07-03T10:12:49.979Z,25.60
2018-07-03T10:15:17.671Z,25.70
2018-07-03T10:17:46.430Z,25.70
2018-07-03T10:20:14.069Z,25.90
2018-07-03T10:22:42.823Z,26.20
2018-07-03T10:25:11.736Z,26.40
2018-07-03T10:27:40.548Z,26.50
2018-07-03T10:30:08.330Z,26.60
2018-07-03T10:32:36.268Z,26.70
2018-07-03T10:35:05.054Z,26.70
2018-07-03T10:37:32.645Z,26.70
2018-07-03T10:40:00.269Z,26.90
2018-07-03T10:42:35.037Z,27.00
2018-07-03T10:45:02.780Z,27.20
2018-07-03T10:47:30.420Z,27.30
2018-07-03T10:50:02.089Z,27.30
2018-07-03T10:52:29.760Z,27.40
2018-07-03T10:54:58.764Z,27.40
2018-07-03T10:57:26.374Z,27.10
2018-07-03T10:59:55.007Z,27.20
2018-07-03T11:02:28.630Z,27.50
2018-07-03T11:04:56.274Z,27.80
2018-07-03T11:07:24.036Z,27.90
2018-07-03T11:09:52.717Z,27.80
2018-07-03T11:12:21.346Z,28.10
2018-07-03T11:14:51.005Z,28.40
2018-07-03T11:17:18.599Z,28.60
2018-07-03T11:19:46.399Z,28.70
2018-07-03T11:22:14.893Z,28.90
2018-07-03T11:24:42.711Z,29.00
2018-07-03T11:27:10.361Z,29.00
2018-07-03T11:29:37.929Z,29.00
2018-07-03T11:32:05.576Z,29.30
2018-07-03T11:34:33.129Z,29.40
2018-07-03T11:37:00.697Z,29.40
2018-07-03T11:39:28.276Z,29.60
2018-07-03T11:41:56.802Z,29.70
2018-07-03T11:44:24.822Z,29.80
2018-07-03T11:46:52.361Z,30.00
2018-07-03T11:49:19.880Z,30.10
2018-07-03T11:51:48.648Z,30.20
2018-07-03T11:54:16.160Z,30.30
2018-07-03T11:56:43.866Z,30.50
2018-07-03T11:59:11.429Z,30.70
2018-07-03T12:01:39.064Z,30.90
2018-07-03T12:04:06.686Z,31.10
2018-07-03T12:06:34.367Z,31.30
2018-07-03T12:09:02.751Z,31.50
2018-07-03T12:11:30.353Z,31.80
2018-07-03T12:13:57.931Z,31.90
2018-07-03T12:16:25.535Z,32.40
2018-07-03T12:18:57.906Z,32.60
2018-07-03T12:21:25.672Z,32.20
2018-07-03T12:23:53.292Z,31.70
2018-07-03T12:26:20.858Z,32.90
2018-07-03T12:28:48.528Z,33.60
2018-07-03T12:31:17.125Z,33.90
2018-07-03T12:33:44.672Z,34.20
2018-07-03T12:36:12.641Z,34.70
2018-07-03T12:38:40.309Z,34.50
2018-07-03T12:41:10.437Z,34.40
2018-07-03T12:43:38.401Z,34.20
2018-07-03T12:46:07.228Z,34.60
2018-07-03T12:48:34.996Z,34.90
2018-07-03T12:51:04.633Z,33.60
2018-07-03T12:53:32.212Z,34.50
2018-07-03T12:55:59.807Z,35.30
2018-07-03T12:58:27.475Z,35.80
2018-07-03T13:00:56.028Z,36.30
2018-07-03T13:03:23.592Z,36.10
2018-07-03T13:05:52.298Z,36.10
2018-07-03T13:08:19.910Z,36.70
2018-07-03T13:10:47.454Z,36.80
2018-07-03T13:13:15.175Z,36.80
2018-07-03T13:15:42.796Z,37.30
2018-07-03T13:18:16.201Z,37.30
2018-07-03T13:20:48.500Z,37.40
2018-07-03T13:23:16.350Z,37.40
2018-07-03T13:25:43.945Z,37.50
2018-07-03T13:28:11.509Z,37.40
2018-07-03T13:30:40.465Z,37.10
2018-07-03T13:33:09.042Z,37.30
2018-07-03T13:35:36.634Z,37.30
2018-07-03T13:38:05.914Z,36.90
2018-07-03T13:40:34.588Z,36.70
2018-07-03T13:43:02.566Z,36.30
2018-07-03T13:45:30.123Z,36.40
2018-07-03T13:47:57.716Z,36.30
2018-07-03T13:50:26.350Z,36.00
2018-07-03T13:52:54.025Z,35.50
2018-07-03T13:55:21.592Z,34.80
2018-07-03T13:57:49.134Z,33.80
2018-07-03T14:00:16.735Z,33.70
2018-07-03T14:02:44.287Z,33.00
2018-07-03T14:05:11.948Z,32.40
2018-07-03T14:07:41.231Z,32.40
2018-07-03T14:10:09.348Z,32.50
2018-07-03T14:12:37.419Z,32.20
2018-07-03T14:15:05.494Z,32.00
2018-07-03T14:17:33.344Z,31.70
2018-07-03T14:20:01.298Z,31.50
2018-07-03T14:22:29.269Z,31.40
2018-07-03T14:24:57.965Z,31.30
2018-07-03T14:27:25.981Z,31.20
2018-07-03T14:29:53.610Z,31.20
2018-07-03T14:32:21.155Z,30.70
2018-07-03T14:34:49.583Z,30.60
2018-07-03T14:37:19.368Z,30.60
2018-07-03T14:39:48.969Z,30.10
2018-07-03T14:42:16.690Z,29.80
2018-07-03T14:44:45.449Z,29.90
2018-07-03T14:47:13.040Z,29.90
2018-07-03T14:49:41.047Z,29.50
2018-07-03T14:52:08.849Z,29.60
2018-07-03T14:54:36.616Z,29.70
2018-07-03T14:57:04.303Z,29.80
2018-07-03T14:59:32.926Z,29.80
2018-07-03T15:02:00.571Z,29.70
2018-07-03T15:04:28.095Z,29.70
2018-07-03T15:06:56.302Z,29.70
2018-07-03T15:09:23.870Z,29.70
2018-07-03T15:11:53.422Z,29.60
2018-07-03T15:14:20.951Z,29.60
2018-07-03T15:16:48.581Z,29.10
2018-07-03T15:19:21.874Z,29.10
2018-07-03T15:21:49.650Z,29.20
2018-07-03T15:24:19.401Z,29.30
2018-07-03T15:26:47.179Z,29.20
2018-07-03T15:29:14.903Z,29.00
2018-07-03T15:31:43.524Z,28.90
2018-07-03T15:34:11.246Z,29.00
2018-07-03T15:36:38.787Z,29.10
2018-07-03T15:39:11.360Z,29.20
2018-07-03T15:41:39.459Z,29.20
2018-07-03T15:44:19.283Z,29.20
2018-07-03T15:46:46.884Z,29.00
2018-07-03T15:49:14.842Z,29.00
2018-07-03T15:51:45.512Z,29.00
2018-07-03T15:54:17.145Z,29.00
2018-07-03T15:56:44.779Z,28.90
2018-07-03T15:59:12.537Z,28.90
2018-07-03T16:01:40.396Z,28.90
2018-07-03T16:05:20.186Z,28.90
2018-07-03T16:08:31.554Z,28.90
2018-07-03T16:10:59.107Z,28.80
2018-07-03T16:13:26.736Z,28.80
2018-07-03T16:15:54.454Z,28.80
2018-07-03T16:18:22.120Z,28.80
2018-07-03T16:20:51.831Z,28.70
2018-07-03T16:23:19.870Z,28.70
2018-07-03T16:25:47.514Z,28.70
2018-07-03T16:28:15.070Z,28.70
2018-07-03T16:30:44.614Z,28.70
2018-07-03T16:33:12.128Z,28.70
2018-07-03T16:35:39.863Z,28.70
2018-07-03T16:38:07.598Z,28.70
2018-07-03T16:40:36.170Z,28.70
2018-07-03T16:43:07.536Z,28.60
2018-07-03T16:45:35.124Z,28.60
2018-07-03T16:48:02.703Z,28.60
2018-07-03T16:50:31.382Z,28.70
2018-07-03T16:52:58.934Z,28.70
2018-07-03T16:55:26.730Z,28.60
2018-07-03T16:57:56.477Z,28.50
2018-07-03T17:00:27.314Z,28.50
2018-07-03T17:02:54.963Z,28.50
2018-07-03T17:05:23.715Z,28.40
2018-07-03T17:07:51.391Z,28.30
2018-07-03T17:10:19.190Z,28.30
2018-07-03T17:12:47.116Z,28.30
2018-07-03T17:15:14.963Z,28.20
2018-07-03T17:17:43.140Z,28.20
2018-07-03T17:20:11.699Z,28.10
2018-07-03T17:22:39.286Z,28.10
2018-07-03T17:25:07.055Z,28.10
2018-07-03T17:27:34.630Z,28.00
2018-07-03T17:30:02.222Z,28.00
2018-07-03T17:32:30.831Z,27.90
2018-07-03T17:34:58.319Z,27.90
2018-07-03T17:37:25.974Z,27.90
2018-07-03T17:40:05.043Z,27.90
2018-07-03T17:42:43.862Z,27.80
2018-07-03T17:45:33.382Z,27.70
2018-07-03T17:48:02.915Z,27.60
2018-07-03T17:50:31.796Z,27.50
2018-07-03T17:52:59.526Z,27.40
2018-07-03T17:55:28.412Z,27.40
2018-07-03T17:57:56.588Z,27.30
2018-07-03T18:00:24.430Z,27.30
2018-07-03T18:02:52.289Z,27.20
2018-07-03T18:05:20.054Z,27.10
2018-07-03T18:07:47.871Z,27.10
2018-07-03T18:10:15.620Z,27.10
2018-07-03T18:12:44.274Z,27.10
2018-07-03T18:15:16.250Z,27.00
2018-07-03T18:17:44.080Z,27.10
2018-07-03T18:20:11.696Z,27.00
2018-07-03T18:22:39.567Z,27.00
2018-07-03T18:25:07.308Z,26.90
2018-07-03T18:27:39.256Z,26.80
2018-07-03T18:30:09.411Z,26.70
2018-07-03T18:32:38.543Z,26.70
2018-07-03T18:35:07.443Z,26.60
2018-07-03T18:37:35.039Z,26.50
2018-07-03T18:40:04.031Z,26.40
2018-07-03T18:42:31.581Z,26.30
2018-07-03T18:44:59.286Z,26.20
2018-07-03T18:47:36.908Z,26.10
2018-07-03T18:50:05.008Z,26.00
2018-07-03T18:52:32.642Z,26.00
2018-07-03T18:55:00.283Z,25.80
2018-07-03T18:57:27.987Z,25.70
2018-07-03T18:59:57.037Z,25.70
2018-07-03T19:02:25.735Z,25.50
2018-07-03T19:04:53.509Z,25.40
2018-07-03T19:07:21.248Z,25.40
2018-07-03T19:10:03.547Z,25.20
2018-07-03T19:12:31.485Z,25.00
2018-07-03T19:14:59.332Z,24.90
2018-07-03T19:17:26.971Z,24.70
2018-07-03T19:19:54.767Z,24.60
2018-07-03T19:22:22.502Z,24.50
2018-07-03T19:24:52.508Z,24.40
2018-07-03T19:27:20.265Z,24.40
2018-07-03T19:29:47.944Z,24.30
2018-07-03T19:32:15.525Z,24.10
2018-07-03T19:34:43.225Z,24.00
2018-07-03T19:37:10.787Z,23.80
2018-07-03T19:39:38.406Z,23.70
2018-07-03T19:42:06.030Z,23.50
2018-07-03T19:44:33.613Z,23.50
2018-07-03T19:47:01.308Z,23.40
2018-07-03T19:49:28.992Z,23.20
2018-07-03T19:51:58.633Z,23.10
2018-07-03T19:54:26.486Z,22.90
2018-07-03T19:56:55.129Z,22.90
2018-07-03T19:59:22.773Z,22.60
2018-07-03T20:01:50.617Z,22.30
2018-07-03T20:04:19.264Z,22.20
2018-07-03T20:06:46.965Z,22.10
2018-07-03T20:09:14.656Z,22.10
2018-07-03T20:11:42.442Z,22.10
2018-07-03T20:14:14.147Z,22.10
2018-07-03T20:16:42.957Z,21.90
2018-07-03T20:19:11.497Z,21.80
2018-07-03T20:21:40.147Z,21.60
2018-07-03T20:24:07.890Z,21.70
2018-07-03T20:26:35.720Z,21.70
2018-07-03T20:29:03.290Z,21.60
2018-07-03T20:31:30.831Z,21.50
2018-07-03T20:33:58.531Z,21.50
2018-07-03T20:36:26.089Z,21.50
2018-07-03T20:38:53.866Z,21.40
2018-07-03T20:41:21.565Z,21.30
2018-07-03T20:43:49.181Z,21.30
2018-07-03T20:46:16.716Z,21.30
2018-07-03T20:48:44.234Z,21.20
2018-07-03T20:51:11.771Z,21.10
2018-07-03T20:53:40.957Z,21.00
2018-07-03T20:56:08.554Z,21.00
2018-07-03T20:58:36.117Z,20.80
2018-07-03T21:01:03.737Z,20.70
2018-07-03T21:03:31.358Z,20.80
2018-07-03T21:06:02.284Z,20.70
2018-07-03T21:08:45.677Z,20.70
2018-07-03T21:11:14.271Z,20.50
2018-07-03T21:13:41.960Z,20.50
2018-07-03T21:16:09.578Z,20.50
2018-07-03T21:18:37.470Z,20.40
2018-07-03T21:21:05.026Z,20.40
2018-07-03T21:23:32.741Z,20.30
2018-07-03T21:26:00.269Z,20.10
2018-07-03T21:28:27.794Z,19.80
2018-07-03T21:30:55.418Z,19.50
2018-07-03T21:33:23.076Z,19.40
2018-07-03T21:35:50.648Z,19.40
2018-07-03T21:38:18.189Z,19.50
2018-07-03T21:40:45.901Z,19.60
2018-07-03T21:43:13.436Z,19.50
2018-07-03T21:45:41.222Z,19.50
2018-07-03T21:48:08.967Z,19.50
2018-07-03T21:50:36.779Z,19.40
2018-07-03T21:53:08.992Z,19.30
2018-07-03T21:55:36.587Z,19.30
2018-07-03T21:58:04.412Z,19.30
2018-07-03T22:00:36.268Z,19.30
2018-07-03T22:03:06.669Z,19.20
2018-07-03T22:05:34.593Z,19.20
2018-07-03T22:08:03.514Z,19.10
2018-07-03T22:10:32.403Z,18.90
2018-07-03T22:13:00.196Z,18.80
2018-07-03T22:15:28.912Z,18.90
2018-07-03T22:17:56.633Z,18.80
2018-07-03T22:20:25.445Z,18.80
2018-07-03T22:22:54.213Z,18.70
2018-07-03T22:25:22.841Z,18.60
2018-07-03T22:27:50.466Z,18.50
2018-07-03T22:30:32.334Z,18.50
2018-07-03T22:32:59.847Z,18.50
2018-07-03T22:35:27.426Z,18.50
2018-07-03T22:37:54.999Z,18.40
2018-07-03T22:40:22.565Z,18.40
2018-07-03T22:42:50.130Z,18.30
2018-07-03T22:45:17.707Z,18.30
2018-07-03T22:47:45.323Z,18.30
2018-07-03T22:50:17.557Z,18.30
2018-07-03T22:52:45.111Z,18.20
2018-07-03T22:55:12.611Z,18.20
2018-07-03T22:57:40.256Z,18.20
2018-07-03T23:00:07.876Z,18.20
2018-07-03T23:02:35.682Z,18.10
2018-07-03T23:05:03.613Z,18.10
2018-07-03T23:07:31.268Z,18.10
2018-07-03T23:09:59.096Z,18.10
2018-07-03T23:12:26.811Z,18.10
2018-07-03T23:14:54.378Z,18.10
2018-07-03T23:17:23.030Z,18.00
2018-07-03T23:19:50.600Z,18.10
2018-07-03T23:22:19.249Z,18.10
2018-07-03T23:24:46.786Z,18.10
2018-07-03T23:27:15.051Z,18.10
2018-07-03T23:29:43.694Z,18.00
2018-07-03T23:32:11.582Z,18.00
2018-07-03T23:34:39.572Z,17.90
2018-07-03T23:37:07.466Z,18.00
2018-07-03T23:39:35.141Z,18.00
2018-07-03T23:42:02.804Z,18.00
2018-07-03T23:44:33.776Z,17.90
2018-07-03T23:47:13.629Z,17.90
2018-07-03T23:49:52.619Z,17.90
2018-07-03T23:52:32.137Z,17.90
2018-07-03T23:55:11.060Z,17.70
2018-07-03T23:57:55.083Z,17.60
